Cumberland, Iowa
Current Conditions -  °F | °C
As of 9:15 AM on Friday 31 Oct 2014 (Local Time) from KAIO Reporting Station
Clear Clear  
Wind Chill: -8°   Ceiling: Unl
Heat Index: -2°   Visibility: 10mi
Dew Point: -6°   Wind: 15mph
Humidity: 74%   Direction: 10°N
Pressure: 30.53"   Gusts: NA
Location:  41.27°N, 94.87°W
Report Text: KAIO 311415Z AUTO 01013KT 10SM CLR M02/M06 A3053 RMK AO2
Loading
Personal Weather Stations






























Interactive Weather Map
Tropical Storm Tracking
New forecast layout! Learn more

10-Day Weather Forecast

Advertisements
Track Severe Weather on mobile